Ship Status Report: callsign BA5

sailwx.info

Track history (hours):
 
Tides and Currents Weather Stations Pressure Air Temp Water Temp Dewpoint Dewpoint Depression Visibility Wind Speed Wind Dir Waves Ship Positions

Callsign BA5 (name unknown)

Last reported at 2015-Mar-23 06:33 UTC. Time now 2015-Jul-07 02:33 UTC.
Position N 51°22' E 002°32'.
Warning: this ship's position is months out of date.

Date/timePositionNaut miles runAvg speedWind from/ knotsBaromVisibWave heightAir tempDewpointWater temp
2015-Mar-23 06:33N 51°22' E 002°32'5 5.0
2015-Mar-23 05:33N 51°21' E 002°25'7 6.8
2015-Mar-23 04:33N 51°17' E 002°15'1010.2
2015-Mar-23 03:33N 51°12' E 002°01'1817.6
2015-Mar-23 02:33N 51°02' E 001°38'2019.7
2015-Mar-23 01:32N 50°44' E 001°22'2018.1
2015-Mar-23 00:26N 50°30' E 001°00'25913.6
2015-Mar-22 05:22N 50°27' W 005°48'1214.5
2015-Mar-22 04:33N 50°35' W 005°34'1515.0
2015-Mar-22 03:34N 50°45' W 005°16'9016.9
2015-Mar-21 22:13N 51°23' W 003°05'1218.6
2015-Mar-21 21:34N 51°29' W 002°49'4 3.6
2015-Mar-21 20:34N 51°30' W 002°43'0 0.1
2015-Mar-21 19:31N 51°30' W 002°43'0 0.0
2015-Mar-21 18:31N 51°30' W 002°43'0 0.0
2015-Mar-21 17:31N 51°30' W 002°43'0 0.0
2015-Mar-21 16:31N 51°30' W 002°43'0 0.0
2015-Mar-21 15:31N 51°30' W 002°43'0 0.0
2015-Mar-21 14:31N 51°30' W 002°43'0 0.0
2015-Mar-21 13:31N 51°30' W 002°43'0 0.0
2015-Mar-21 12:31N 51°30' W 002°43'0 0.0
2015-Mar-21 11:28N 51°30' W 002°43'0 0.0
2015-Mar-21 10:31N 51°30' W 002°43'0 0.0
2015-Mar-21 09:31N 51°30' W 002°43'0 0.3
2015-Mar-21 08:33N 51°30' W 002°43'2 2.2
2015-Mar-21 07:33N 51°30' W 002°47'1515.1
2015-Mar-21 06:33N 51°22' W 003°08'98 5.4
2015-Mar-20 12:27N 50°52' W 005°35'1415.4
2015-Mar-20 11:33N 50°39' W 005°44'70514.9
2015-Mar-18 12:07N 39°16' W 009°50'916.0
2015-Mar-18 11:33N 39°07' W 009°51'1615.5
2015-Mar-18 10:33N 38°51' W 009°51'1515.2
2015-Mar-18 09:34N 38°36' W 009°49'1514.8
2015-Mar-18 08:34N 38°22' W 009°45'1514.9
2015-Mar-18 07:33N 38°07' W 009°41'1515.0
2015-Mar-18 06:33N 37°53' W 009°36'1515.4
2015-Mar-18 05:33N 37°38' W 009°32'3115.1
2015-Mar-18 03:30N 37°08' W 009°22'4013.5
2015-Mar-18 00:33N 36°39' W 008°48'1515.2
2015-Mar-17 23:34N 36°34' W 008°30'36014.8
2015-Mar-16 23:11N 37°15' W 001°02'1116.7
2015-Mar-16 22:33N 37°23' W 000°53'1716.8
2015-Mar-16 21:34N 37°32' W 000°36'1716.9
2015-Mar-16 20:34N 37°46' W 000°24'1716.5
2015-Mar-16 19:33N 38°00' W 000°12'8614.2
2015-Mar-16 13:30N 39°26' W 000°03'1313.6
2015-Mar-16 12:33N 39°37' W 000°11'2 2.2
2015-Mar-16 11:33N 39°38' W 000°13'0 0.0
2015-Mar-16 09:33N 39°38' W 000°13'0 0.0
2015-Mar-16 08:33N 39°38' W 000°13'0 0.0
2015-Mar-16 07:33N 39°38' W 000°13'0 0.0
2015-Mar-16 06:33N 39°38' W 000°13'0 0.5
2015-Mar-16 05:33N 39°38' W 000°13'10 8.2
2015-Mar-16 04:21N 39°37' E 000°00'68 8.7
2015-Mar-15 20:33N 39°19' E 001°24'1616.3
2015-Mar-15 19:33N 39°15' E 001°45'1716.5
2015-Mar-15 18:33N 39°11' E 002°06'1616.3
2015-Mar-15 17:34N 39°07' E 002°26'1616.2
2015-Mar-15 16:33N 39°03' E 002°46'1616.1
2015-Mar-15 15:33N 38°59' E 003°07'1616.2
2015-Mar-15 14:33N 38°55' E 003°27'1616.2
2015-Mar-15 13:34N 38°52' E 003°47'47415.7
2015-Mar-14 07:29N 36°42' E 013°23'1516.0
2015-Mar-14 06:33N 36°37' E 013°40'1615.8
2015-Mar-14 05:34N 36°30' E 013°58'1615.9
2015-Mar-14 04:33N 36°24' E 014°16'1816.3
2015-Mar-14 03:25N 36°17' E 014°38'  
Track history (hours):
 
Tides and Currents Weather Stations Pressure Air Temp Water Temp Dewpoint Dewpoint Depression Visibility Wind Speed Wind Dir Waves Ship Positions

Callsign BA5 (name unknown)

Last reported at 2015-Mar-23 06:33 UTC. Time now 2015-Jul-07 02:33 UTC.
Position N 51°22' E 002°32'.
Warning: this ship's position is months out of date.

Date/timePositionNaut miles runAvg speedWind from/ knotsBaromVisibWave heightAir tempDewpointWater temp
2015-Mar-23 06:33N 51°22' E 002°32'5 5.0
2015-Mar-23 05:33N 51°21' E 002°25'7 6.8
2015-Mar-23 04:33N 51°17' E 002°15'1010.2
2015-Mar-23 03:33N 51°12' E 002°01'1817.6
2015-Mar-23 02:33N 51°02' E 001°38'2019.7
2015-Mar-23 01:32N 50°44' E 001°22'2018.1
2015-Mar-23 00:26N 50°30' E 001°00'25913.6
2015-Mar-22 05:22N 50°27' W 005°48'1214.5
2015-Mar-22 04:33N 50°35' W 005°34'1515.0
2015-Mar-22 03:34N 50°45' W 005°16'9016.9
2015-Mar-21 22:13N 51°23' W 003°05'1218.6
2015-Mar-21 21:34N 51°29' W 002°49'4 3.6
2015-Mar-21 20:34N 51°30' W 002°43'0 0.1
2015-Mar-21 19:31N 51°30' W 002°43'0 0.0
2015-Mar-21 18:31N 51°30' W 002°43'0 0.0
2015-Mar-21 17:31N 51°30' W 002°43'0 0.0
2015-Mar-21 16:31N 51°30' W 002°43'0 0.0
2015-Mar-21 15:31N 51°30' W 002°43'0 0.0
2015-Mar-21 14:31N 51°30' W 002°43'0 0.0
2015-Mar-21 13:31N 51°30' W 002°43'0 0.0
2015-Mar-21 12:31N 51°30' W 002°43'0 0.0
2015-Mar-21 11:28N 51°30' W 002°43'0 0.0
2015-Mar-21 10:31N 51°30' W 002°43'0 0.0
2015-Mar-21 09:31N 51°30' W 002°43'0 0.3
2015-Mar-21 08:33N 51°30' W 002°43'2 2.2
2015-Mar-21 07:33N 51°30' W 002°47'1515.1
2015-Mar-21 06:33N 51°22' W 003°08'98 5.4
2015-Mar-20 12:27N 50°52' W 005°35'1415.4
2015-Mar-20 11:33N 50°39' W 005°44'70514.9
2015-Mar-18 12:07N 39°16' W 009°50'916.0
2015-Mar-18 11:33N 39°07' W 009°51'1615.5
2015-Mar-18 10:33N 38°51' W 009°51'1515.2
2015-Mar-18 09:34N 38°36' W 009°49'1514.8
2015-Mar-18 08:34N 38°22' W 009°45'1514.9
2015-Mar-18 07:33N 38°07' W 009°41'1515.0
2015-Mar-18 06:33N 37°53' W 009°36'1515.4
2015-Mar-18 05:33N 37°38' W 009°32'3115.1
2015-Mar-18 03:30N 37°08' W 009°22'4013.5
2015-Mar-18 00:33N 36°39' W 008°48'1515.2
2015-Mar-17 23:34N 36°34' W 008°30'36014.8
2015-Mar-16 23:11N 37°15' W 001°02'1116.7
2015-Mar-16 22:33N 37°23' W 000°53'1716.8
2015-Mar-16 21:34N 37°32' W 000°36'1716.9
2015-Mar-16 20:34N 37°46' W 000°24'1716.5
2015-Mar-16 19:33N 38°00' W 000°12'8614.2
2015-Mar-16 13:30N 39°26' W 000°03'1313.6
2015-Mar-16 12:33N 39°37' W 000°11'2 2.2
2015-Mar-16 11:33N 39°38' W 000°13'0 0.0
2015-Mar-16 09:33N 39°38' W 000°13'0 0.0
2015-Mar-16 08:33N 39°38' W 000°13'0 0.0
2015-Mar-16 07:33N 39°38' W 000°13'0 0.0
2015-Mar-16 06:33N 39°38' W 000°13'0 0.5
2015-Mar-16 05:33N 39°38' W 000°13'10 8.2
2015-Mar-16 04:21N 39°37' E 000°00'68 8.7
2015-Mar-15 20:33N 39°19' E 001°24'1616.3
2015-Mar-15 19:33N 39°15' E 001°45'1716.5
2015-Mar-15 18:33N 39°11' E 002°06'1616.3
2015-Mar-15 17:34N 39°07' E 002°26'1616.2
2015-Mar-15 16:33N 39°03' E 002°46'1616.1
2015-Mar-15 15:33N 38°59' E 003°07'1616.2
2015-Mar-15 14:33N 38°55' E 003°27'1616.2
2015-Mar-15 13:34N 38°52' E 003°47'47415.7
2015-Mar-14 07:29N 36°42' E 013°23'1516.0
2015-Mar-14 06:33N 36°37' E 013°40'1615.8
2015-Mar-14 05:34N 36°30' E 013°58'1615.9
2015-Mar-14 04:33N 36°24' E 014°16'1816.3
2015-Mar-14 03:25N 36°17' E 014°38'  

Dump ship's entire track history